createdAt,value
2019-04-07T00:00:02.725Z,12.47
2019-04-07T00:01:02.722Z,12.47
2019-04-07T00:02:02.816Z,12.47
2019-04-07T00:03:02.688Z,12.52
2019-04-07T00:04:02.678Z,12.47
2019-04-07T00:05:10.969Z,12.45
2019-04-07T00:06:04.156Z,12.45
2019-04-07T00:07:02.640Z,12.38
2019-04-07T00:08:02.630Z,12.38
2019-04-07T00:09:02.750Z,12.42
2019-04-07T00:10:02.857Z,12.29
2019-04-07T00:11:02.982Z,12.37
2019-04-07T00:12:02.800Z,12.35
2019-04-07T00:13:02.867Z,12.41
2019-04-07T00:14:02.564Z,12.35
2019-04-07T00:15:02.561Z,12.35
2019-04-07T00:16:02.553Z,12.21
2019-04-07T00:17:02.521Z,12.27
2019-04-07T00:18:02.521Z,12.28
2019-04-07T00:19:02.508Z,12.21
2019-04-07T00:20:02.509Z,12.27
2019-04-07T00:21:02.500Z,12.24
2019-04-07T00:22:02.503Z,12.21
2019-04-07T00:23:02.461Z,12.13
2019-04-07T00:24:02.508Z,12.19
2019-04-07T00:25:02.607Z,12.10
2019-04-07T00:26:02.534Z,12.17
2019-04-07T00:27:02.587Z,12.13
2019-04-07T00:28:02.584Z,12.07
2019-04-07T00:29:02.403Z,12.01
2019-04-07T00:30:02.375Z,12.09
2019-04-07T00:31:02.538Z,12.09
2019-04-07T00:32:02.556Z,11.99
2019-04-07T00:33:02.340Z,11.95
2019-04-07T00:34:02.804Z,12.01
2019-04-07T00:35:02.318Z,11.96
2019-04-07T00:36:02.714Z,11.85
2019-04-07T00:37:03.056Z,11.91
2019-04-07T00:38:02.980Z,11.90
2019-04-07T00:39:02.709Z,11.90
2019-04-07T00:40:02.320Z,11.91
2019-04-07T00:41:02.248Z,11.85
2019-04-07T00:42:02.880Z,11.85
2019-04-07T00:43:02.230Z,11.86
2019-04-07T00:44:02.454Z,11.85
2019-04-07T00:45:02.240Z,11.80
2019-04-07T00:46:02.407Z,11.80
2019-04-07T00:47:02.215Z,11.76
2019-04-07T00:48:02.193Z,11.85
2019-04-07T00:49:02.907Z,11.80
2019-04-07T00:50:02.910Z,11.75
2019-04-07T00:51:02.136Z,11.76
2019-04-07T00:52:02.823Z,11.75
2019-04-07T00:53:02.129Z,11.70
2019-04-07T00:54:02.113Z,11.78
2019-04-07T00:55:02.314Z,11.69
2019-04-07T00:56:02.084Z,11.52
2019-04-07T00:57:02.084Z,11.64
2019-04-07T00:58:02.587Z,11.67
2019-04-07T00:59:02.647Z,11.67
2019-04-07T01:00:02.847Z,11.57
2019-04-07T01:01:02.033Z,11.64
2019-04-07T01:02:02.566Z,11.60
2019-04-07T01:03:02.017Z,11.64
2019-04-07T01:04:01.994Z,11.65
2019-04-07T01:05:02.518Z,11.62
2019-04-07T01:06:02.216Z,11.61
2019-04-07T01:07:02.701Z,11.57
2019-04-07T01:08:01.948Z,11.51
2019-04-07T01:09:01.937Z,11.51
2019-04-07T01:10:02.174Z,11.58
2019-04-07T01:11:02.389Z,11.54
2019-04-07T01:12:01.918Z,11.54
2019-04-07T01:13:01.890Z,11.47
2019-04-07T01:14:01.881Z,11.49
2019-04-07T01:15:02.297Z,11.47
2019-04-07T01:16:01.878Z,11.47
2019-04-07T01:17:02.415Z,11.54
2019-04-07T01:18:02.132Z,11.46
2019-04-07T01:19:02.427Z,11.43
2019-04-07T01:20:01.816Z,11.47
2019-04-07T01:21:02.232Z,11.40
2019-04-07T01:22:02.373Z,11.49
2019-04-07T01:23:01.783Z,11.44
2019-04-07T01:24:02.327Z,11.46
2019-04-07T01:25:01.758Z,11.36
2019-04-07T01:26:01.951Z,11.39
2019-04-07T01:27:01.760Z,11.43
2019-04-07T01:28:01.994Z,11.28
2019-04-07T01:29:02.982Z,11.27
2019-04-07T01:30:02.055Z,11.33
2019-04-07T01:31:02.329Z,11.32
2019-04-07T01:32:01.696Z,11.33
2019-04-07T01:33:02.183Z,11.35
2019-04-07T01:34:02.161Z,11.27
2019-04-07T01:35:02.391Z,11.29
2019-04-07T01:36:02.046Z,11.18
2019-04-07T01:37:01.617Z,11.19
2019-04-07T01:38:01.634Z,11.17
2019-04-07T01:39:01.597Z,11.21
2019-04-07T01:40:01.611Z,11.09
2019-04-07T01:41:02.002Z,11.15
2019-04-07T01:42:01.645Z,11.18
2019-04-07T01:43:01.568Z,11.15
2019-04-07T01:44:01.547Z,11.11
2019-04-07T01:45:01.568Z,11.15
2019-04-07T01:46:02.181Z,11.09
2019-04-07T01:47:01.505Z,11.17
2019-04-07T01:48:01.508Z,11.15
2019-04-07T01:49:02.149Z,11.09
2019-04-07T01:50:02.169Z,11.06
2019-04-07T01:51:01.512Z,11.07
2019-04-07T01:52:01.926Z,11.09
2019-04-07T01:53:01.459Z,11.02
2019-04-07T01:54:02.071Z,10.99
2019-04-07T01:55:01.436Z,11.03
2019-04-07T01:56:01.806Z,10.97
2019-04-07T01:57:01.444Z,11.04
2019-04-07T01:58:02.044Z,11.03
2019-04-07T01:59:01.561Z,10.92
2019-04-07T02:00:01.941Z,10.85
2019-04-07T02:01:02.019Z,10.89
2019-04-07T02:02:02.017Z,10.88
2019-04-07T02:03:01.344Z,10.85
2019-04-07T02:04:01.744Z,10.79
2019-04-07T02:05:01.326Z,10.81
2019-04-07T02:06:03.806Z,10.89
2019-04-07T02:07:01.839Z,10.76
2019-04-07T02:08:01.354Z,10.84
2019-04-07T02:09:01.812Z,10.81
2019-04-07T02:10:01.241Z,10.84
2019-04-07T02:11:01.364Z,10.84
2019-04-07T02:12:01.894Z,10.84
2019-04-07T02:13:02.057Z,10.73
2019-04-07T02:14:01.205Z,10.78
2019-04-07T02:15:01.218Z,10.81
2019-04-07T02:16:01.176Z,10.76
2019-04-07T02:17:01.869Z,10.71
2019-04-07T02:18:01.183Z,10.74
2019-04-07T02:19:01.963Z,10.86
2019-04-07T02:20:01.352Z,10.78
2019-04-07T02:21:01.119Z,10.74
2019-04-07T02:22:01.106Z,10.74
2019-04-07T02:23:01.114Z,10.70
2019-04-07T02:24:01.088Z,10.73
2019-04-07T02:25:01.791Z,10.78
2019-04-07T02:26:01.078Z,10.74
2019-04-07T02:27:01.054Z,10.78
2019-04-07T02:28:01.150Z,10.71
2019-04-07T02:29:01.602Z,10.71
2019-04-07T02:30:01.022Z,10.74
2019-04-07T02:31:01.048Z,10.67
2019-04-07T02:32:01.451Z,10.61
2019-04-07T02:33:02.148Z,10.64
2019-04-07T02:34:00.999Z,10.61
2019-04-07T02:35:01.523Z,10.56
2019-04-07T02:36:15.804Z,10.60
2019-04-07T02:37:03.014Z,10.55
2019-04-07T02:38:02.047Z,10.61
2019-04-07T02:39:00.953Z,10.61
2019-04-07T02:40:00.923Z,10.55
2019-04-07T02:41:01.768Z,10.44
2019-04-07T02:42:00.884Z,10.52
2019-04-07T02:43:01.840Z,10.52
2019-04-07T02:44:01.596Z,10.53
2019-04-07T02:45:01.384Z,10.45
2019-04-07T02:46:00.837Z,10.44
2019-04-07T02:47:00.949Z,10.47
2019-04-07T02:48:01.147Z,10.51
2019-04-07T02:49:01.778Z,10.44
2019-04-07T02:50:01.677Z,10.42
2019-04-07T02:51:01.308Z,10.44
2019-04-07T02:52:00.771Z,10.44
2019-04-07T02:53:01.545Z,10.32
2019-04-07T02:54:00.854Z,10.36
2019-04-07T02:55:01.094Z,10.26
2019-04-07T02:56:01.874Z,10.27
2019-04-07T02:57:00.717Z,10.30
2019-04-07T02:58:01.532Z,10.30
2019-04-07T02:59:01.327Z,10.30
2019-04-07T03:00:01.131Z,10.30
2019-04-07T03:01:01.771Z,10.29
2019-04-07T03:02:00.743Z,10.30
2019-04-07T03:03:01.631Z,10.18
2019-04-07T03:04:00.657Z,10.29
2019-04-07T03:05:00.629Z,10.22
2019-04-07T03:06:01.832Z,10.23
2019-04-07T03:07:00.671Z,10.20
2019-04-07T03:08:01.581Z,10.23
2019-04-07T03:09:00.597Z,10.22
2019-04-07T03:10:00.575Z,10.15
2019-04-07T03:11:00.558Z,10.18
2019-04-07T03:12:00.548Z,10.18
2019-04-07T03:13:01.003Z,10.17
2019-04-07T03:14:00.724Z,10.18
2019-04-07T03:15:00.627Z,10.17
2019-04-07T03:16:00.814Z,10.15
2019-04-07T03:17:00.499Z,10.09
2019-04-07T03:18:00.604Z,10.07
2019-04-07T03:19:00.596Z,10.12
2019-04-07T03:20:00.824Z,10.14
2019-04-07T03:21:01.183Z,10.05
2019-04-07T03:22:00.969Z,10.07
2019-04-07T03:23:00.456Z,10.11
2019-04-07T03:24:00.443Z,10.02
2019-04-07T03:25:00.399Z,10.04
2019-04-07T03:26:00.857Z,9.97
2019-04-07T03:27:00.837Z,10.09
2019-04-07T03:28:00.525Z,9.94
2019-04-07T03:29:01.222Z,10.05
2019-04-07T03:30:00.906Z,9.93
2019-04-07T03:31:02.184Z,9.96
2019-04-07T03:32:00.580Z,9.96
2019-04-07T03:33:02.559Z,9.94
2019-04-07T03:34:03.846Z,9.93
2019-04-07T03:35:00.313Z,9.96
2019-04-07T03:36:02.869Z,9.94
2019-04-07T03:37:25.824Z,9.94
2019-04-07T03:38:02.019Z,9.96
2019-04-07T03:39:00.894Z,9.94
2019-04-07T03:40:00.914Z,9.93
2019-04-07T03:41:00.260Z,9.91
2019-04-07T03:42:01.061Z,9.89
2019-04-07T03:43:00.196Z,9.86
2019-04-07T03:44:01.202Z,9.89
2019-04-07T03:45:00.763Z,9.78
2019-04-07T03:46:00.341Z,9.86
2019-04-07T03:47:01.372Z,9.86
2019-04-07T03:48:00.666Z,9.84
2019-04-07T03:49:00.127Z,9.78
2019-04-07T03:50:00.143Z,9.76
2019-04-07T03:51:01.414Z,9.81
2019-04-07T03:52:00.101Z,9.83
2019-04-07T03:53:00.083Z,9.76
2019-04-07T03:54:00.652Z,9.79
2019-04-07T03:55:01.210Z,9.72
2019-04-07T03:56:00.058Z,9.76
2019-04-07T03:57:00.449Z,9.75
2019-04-07T03:58:00.199Z,9.78
2019-04-07T03:59:00.011Z,9.76
2019-04-07T04:00:00.615Z,9.75
2019-04-07T04:01:00.605Z,9.69
2019-04-07T04:02:00.190Z,9.69
2019-04-07T04:03:00.385Z,9.69
2019-04-07T04:04:00.694Z,9.69
2019-04-07T04:05:00.872Z,9.69
2019-04-07T04:05:59.935Z,9.66
2019-04-07T04:07:00.219Z,9.68
2019-04-07T04:07:59.916Z,9.76
2019-04-07T04:09:00.520Z,9.71
2019-04-07T04:09:59.913Z,9.71
2019-04-07T04:11:00.130Z,9.71
2019-04-07T04:12:00.194Z,9.60
2019-04-07T04:13:00.863Z,9.68
2019-04-07T04:13:59.850Z,9.56
2019-04-07T04:15:00.515Z,9.61
2019-04-07T04:16:00.784Z,9.56
2019-04-07T04:17:00.083Z,9.57
2019-04-07T04:17:59.803Z,9.54
2019-04-07T04:19:00.144Z,9.57
2019-04-07T04:19:59.969Z,9.58
2019-04-07T04:20:59.791Z,9.51
2019-04-07T04:22:00.640Z,9.56
2019-04-07T04:22:59.859Z,9.50
2019-04-07T04:24:00.565Z,9.56
2019-04-07T04:25:00.510Z,9.48
2019-04-07T04:25:59.728Z,9.53
2019-04-07T04:26:59.708Z,9.61
2019-04-07T04:27:59.697Z,9.50
2019-04-07T04:28:59.907Z,9.50
2019-04-07T04:30:00.816Z,9.46
2019-04-07T04:30:59.903Z,9.48
2019-04-07T04:31:59.767Z,9.47
2019-04-07T04:32:59.811Z,9.53
2019-04-07T04:33:59.625Z,9.53
2019-04-07T04:34:59.617Z,9.48
2019-04-07T04:36:00.522Z,9.43
2019-04-07T04:36:59.969Z,9.48
2019-04-07T04:37:59.823Z,9.42
2019-04-07T04:39:00.569Z,9.54
2019-04-07T04:39:59.782Z,9.47
2019-04-07T04:41:00.144Z,9.46
2019-04-07T04:41:59.921Z,9.48
2019-04-07T04:42:59.521Z,9.46
2019-04-07T04:44:00.404Z,9.46
2019-04-07T04:44:59.501Z,9.36
2019-04-07T04:45:59.982Z,9.39
2019-04-07T04:47:01.232Z,9.47
2019-04-07T04:48:00.189Z,9.42
2019-04-07T04:48:59.459Z,9.46
2019-04-07T04:49:59.844Z,9.46
2019-04-07T04:50:59.902Z,9.43
2019-04-07T04:52:00.329Z,9.53
2019-04-07T04:52:59.881Z,9.48
2019-04-07T04:53:59.400Z,9.47
2019-04-07T04:54:59.390Z,9.50
2019-04-07T04:55:59.374Z,9.50
2019-04-07T04:57:00.149Z,9.53
2019-04-07T04:57:59.357Z,9.48
2019-04-07T04:58:59.801Z,9.43
2019-04-07T04:59:59.334Z,9.51
2019-04-07T05:00:59.330Z,9.48
2019-04-07T05:01:59.868Z,9.47
2019-04-07T05:02:59.411Z,9.51
2019-04-07T05:03:59.435Z,9.47
2019-04-07T05:04:59.386Z,9.56
2019-04-07T05:05:59.269Z,9.61
2019-04-07T05:06:59.390Z,9.61
2019-04-07T05:08:03.613Z,9.50
2019-04-07T05:09:01.084Z,9.53
2019-04-07T05:10:00.009Z,9.58
2019-04-07T05:10:59.829Z,9.61
2019-04-07T05:11:59.217Z,9.48
2019-04-07T05:12:59.184Z,9.57
2019-04-07T05:13:59.326Z,9.51
2019-04-07T05:14:59.164Z,9.54
2019-04-07T05:15:59.444Z,9.61
2019-04-07T05:16:59.511Z,9.58
2019-04-07T05:17:59.133Z,9.57
2019-04-07T05:18:59.644Z,9.57
2019-04-07T05:19:59.102Z,9.58
2019-04-07T05:20:59.757Z,9.57
2019-04-07T05:21:59.842Z,9.56
2019-04-07T05:22:59.791Z,9.54
2019-04-07T05:23:59.214Z,9.61
2019-04-07T05:24:59.043Z,9.58
2019-04-07T05:25:59.239Z,9.60
2019-04-07T05:26:59.042Z,9.66
2019-04-07T05:27:59.014Z,9.66
2019-04-07T05:28:59.393Z,9.61
2019-04-07T05:29:58.985Z,9.61
2019-04-07T05:30:59.115Z,9.64
2019-04-07T05:31:59.169Z,9.65
2019-04-07T05:32:59.090Z,9.65
2019-04-07T05:34:00.295Z,9.66
2019-04-07T05:34:58.935Z,9.66
2019-04-07T05:35:59.305Z,9.69
2019-04-07T05:36:58.931Z,9.74
2019-04-07T05:38:02.680Z,9.78
2019-04-07T05:38:59.950Z,9.71
2019-04-07T05:39:59.156Z,9.74
2019-04-07T05:40:58.870Z,9.83
2019-04-07T05:41:59.218Z,9.71
2019-04-07T05:42:58.842Z,9.78
2019-04-07T05:43:58.836Z,9.87
2019-04-07T05:44:58.819Z,9.89
2019-04-07T05:45:59.291Z,9.91
2019-04-07T05:46:58.827Z,10.01
2019-04-07T05:47:58.874Z,10.01
2019-04-07T05:48:58.893Z,9.94
2019-04-07T05:49:59.636Z,9.91
2019-04-07T05:51:00.536Z,9.97
2019-04-07T05:52:03.859Z,10.04
2019-04-07T05:52:59.752Z,10.08
2019-04-07T05:53:59.313Z,10.09
2019-04-07T05:54:58.797Z,10.08
2019-04-07T05:55:58.697Z,10.08
2019-04-07T05:57:01.183Z,10.11
2019-04-07T05:57:58.745Z,10.11
2019-04-07T05:58:58.659Z,10.17
2019-04-07T05:59:59.251Z,10.18
2019-04-07T06:00:58.725Z,10.15
2019-04-07T06:02:01.545Z,10.30
2019-04-07T06:03:01.265Z,10.32
2019-04-07T06:03:59.982Z,10.36
2019-04-07T06:05:00.288Z,10.36
2019-04-07T06:05:59.286Z,10.45
2019-04-07T06:06:59.113Z,10.52
2019-04-07T06:08:02.693Z,10.53
2019-04-07T06:08:59.810Z,10.56
2019-04-07T06:09:58.807Z,10.47
2019-04-07T06:11:02.045Z,10.63
2019-04-07T06:11:58.725Z,10.61
2019-04-07T06:12:58.531Z,10.61
2019-04-07T06:13:58.495Z,10.67
2019-04-07T06:14:58.593Z,10.74
2019-04-07T06:15:58.756Z,10.76
2019-04-07T06:16:58.851Z,10.73
2019-04-07T06:18:00.538Z,10.79
2019-04-07T06:18:58.887Z,10.81
2019-04-07T06:19:58.946Z,10.74
2019-04-07T06:20:58.568Z,10.79
2019-04-07T06:21:59.118Z,10.81
2019-04-07T06:22:58.491Z,10.92
2019-04-07T06:23:59.854Z,10.84
2019-04-07T06:25:00.746Z,10.96
2019-04-07T06:25:59.450Z,11.00
2019-04-07T06:26:58.726Z,10.92
2019-04-07T06:27:58.875Z,11.03
2019-04-07T06:28:58.901Z,11.07
2019-04-07T06:30:00.077Z,11.24
2019-04-07T06:31:00.172Z,11.21
2019-04-07T06:32:02.442Z,11.24
2019-04-07T06:32:59.300Z,11.29
2019-04-07T06:33:58.931Z,11.28
2019-04-07T06:34:58.454Z,11.43
2019-04-07T06:35:58.258Z,11.47
2019-04-07T06:36:58.281Z,11.43
2019-04-07T06:38:04.066Z,11.54
2019-04-07T06:38:59.384Z,11.54
2019-04-07T06:39:59.203Z,11.61
2019-04-07T06:41:00.906Z,11.65
2019-04-07T06:42:00.423Z,11.69
2019-04-07T06:42:58.164Z,11.73
2019-04-07T06:44:08.868Z,11.82
2019-04-07T06:45:00.401Z,11.85
2019-04-07T06:45:58.478Z,11.95
2019-04-07T06:47:01.294Z,11.91
2019-04-07T06:48:01.143Z,12.01
2019-04-07T06:48:58.115Z,12.12
2019-04-07T06:49:58.555Z,12.13
2019-04-07T06:50:59.737Z,12.20
2019-04-07T06:52:00.691Z,12.31
2019-04-07T06:52:58.830Z,12.24
2019-04-07T06:53:58.060Z,12.45
2019-04-07T06:54:58.040Z,12.45
2019-04-07T06:56:01.359Z,12.50
2019-04-07T06:56:58.012Z,12.57
2019-04-07T06:57:58.235Z,12.60
2019-04-07T06:58:58.140Z,12.67
2019-04-07T06:59:57.984Z,12.68
2019-04-07T07:01:00.274Z,12.79
2019-04-07T07:01:59.392Z,12.85
2019-04-07T07:02:58.914Z,12.78
2019-04-07T07:03:58.548Z,12.87
2019-04-07T07:04:58.281Z,12.96
2019-04-07T07:06:00.205Z,12.97
2019-04-07T07:06:57.894Z,13.14
2019-04-07T07:07:57.887Z,13.08
2019-04-07T07:08:58.360Z,13.23
2019-04-07T07:09:59.888Z,13.29
2019-04-07T07:10:58.467Z,13.33
2019-04-07T07:11:58.804Z,13.44
2019-04-07T07:13:01.656Z,13.51
2019-04-07T07:13:57.831Z,13.48
2019-04-07T07:14:58.323Z,13.62
2019-04-07T07:15:58.524Z,13.70
2019-04-07T07:16:58.700Z,13.81
2019-04-07T07:17:59.256Z,13.84
2019-04-07T07:18:58.753Z,13.82
2019-04-07T07:20:01.312Z,13.99
2019-04-07T07:21:02.547Z,14.06
2019-04-07T07:21:57.973Z,14.03
2019-04-07T07:23:00.340Z,14.06
2019-04-07T07:23:57.961Z,14.12
2019-04-07T07:24:59.854Z,14.12
2019-04-07T07:26:00.888Z,14.10
2019-04-07T07:26:58.663Z,14.24
2019-04-07T07:27:57.808Z,14.29
2019-04-07T07:28:58.303Z,14.33
2019-04-07T07:29:57.845Z,14.40
2019-04-07T07:30:57.631Z,14.45
2019-04-07T07:32:02.488Z,14.52
2019-04-07T07:32:58.612Z,14.55
2019-04-07T07:33:58.260Z,14.52
2019-04-07T07:34:57.682Z,14.65
2019-04-07T07:35:58.294Z,14.60
2019-04-07T07:36:58.739Z,14.64
2019-04-07T07:37:59.504Z,14.61
2019-04-07T07:39:01.785Z,14.70
2019-04-07T07:39:58.561Z,14.78
2019-04-07T07:41:00.941Z,14.77
2019-04-07T07:41:58.339Z,14.80
2019-04-07T07:42:59.111Z,14.83
2019-04-07T07:44:00.660Z,14.91
2019-04-07T07:44:58.636Z,14.91
2019-04-07T07:45:57.662Z,14.98
2019-04-07T07:46:58.167Z,15.10
2019-04-07T07:47:57.712Z,15.19
2019-04-07T07:49:00.784Z,15.23
2019-04-07T07:49:57.589Z,15.17
2019-04-07T07:50:57.425Z,15.32
2019-04-07T07:51:58.094Z,15.34
2019-04-07T07:52:58.129Z,15.50
2019-04-07T07:54:00.740Z,15.47
2019-04-07T07:54:59.799Z,15.59
2019-04-07T07:55:57.633Z,15.62
2019-04-07T07:56:58.001Z,15.74
2019-04-07T07:57:59.186Z,15.74
2019-04-07T07:58:59.897Z,15.75
2019-04-07T07:59:57.415Z,15.83
2019-04-07T08:00:59.606Z,15.83
2019-04-07T08:01:57.840Z,15.90
2019-04-07T08:02:57.263Z,16.01
2019-04-07T08:03:57.253Z,16.04
2019-04-07T08:04:59.113Z,16.08
2019-04-07T08:05:57.868Z,16.14
2019-04-07T08:06:57.851Z,16.23
2019-04-07T08:07:57.379Z,16.24
2019-04-07T08:09:07.615Z,16.35
2019-04-07T08:09:58.211Z,16.39
2019-04-07T08:11:00.681Z,16.38
2019-04-07T08:11:57.774Z,16.35
2019-04-07T08:12:57.422Z,16.45
2019-04-07T08:13:57.745Z,16.60
2019-04-07T08:14:58.665Z,16.63
2019-04-07T08:15:58.555Z,16.60
2019-04-07T08:17:00.195Z,16.70
2019-04-07T08:17:58.556Z,16.71
2019-04-07T08:18:59.199Z,16.79
2019-04-07T08:19:57.751Z,16.81
2019-04-07T08:20:57.779Z,16.91
2019-04-07T08:21:57.323Z,16.93
2019-04-07T08:22:57.079Z,16.83
2019-04-07T08:23:57.837Z,16.89
2019-04-07T08:24:57.033Z,16.98
2019-04-07T08:25:57.893Z,16.96
2019-04-07T08:26:58.851Z,16.97
2019-04-07T08:27:57.444Z,17.03
2019-04-07T08:28:56.977Z,16.97
2019-04-07T08:29:57.209Z,17.08
2019-04-07T08:30:57.526Z,17.06
2019-04-07T08:31:57.662Z,17.22
2019-04-07T08:32:59.290Z,17.19
2019-04-07T08:33:59.649Z,17.25
2019-04-07T08:34:57.005Z,17.28
2019-04-07T08:35:57.749Z,17.33
2019-04-07T08:36:57.449Z,17.31
2019-04-07T08:37:57.595Z,17.33
2019-04-07T08:38:57.191Z,17.34
2019-04-07T08:39:57.957Z,17.38
2019-04-07T08:40:57.607Z,17.33
2019-04-07T08:41:57.227Z,17.41
2019-04-07T08:42:57.288Z,17.40
2019-04-07T08:43:57.874Z,17.43
2019-04-07T08:44:58.709Z,17.43
2019-04-07T08:45:56.768Z,17.52
2019-04-07T08:46:57.965Z,17.46
2019-04-07T08:47:56.750Z,17.55
2019-04-07T08:48:56.748Z,17.55
2019-04-07T08:49:57.762Z,17.55
2019-04-07T08:50:58.705Z,17.59
2019-04-07T08:51:57.170Z,17.63
2019-04-07T08:52:56.689Z,17.66
2019-04-07T08:53:57.444Z,17.72
2019-04-07T08:54:56.694Z,17.81
2019-04-07T08:55:57.006Z,17.77
2019-04-07T08:56:58.215Z,17.82
2019-04-07T08:58:00.100Z,17.93
2019-04-07T08:58:57.957Z,17.87
2019-04-07T08:59:56.814Z,17.78
2019-04-07T09:00:57.294Z,17.86
2019-04-07T09:01:56.994Z,17.87
2019-04-07T09:03:03.095Z,17.92
2019-04-07T09:03:57.570Z,17.89
2019-04-07T09:04:56.943Z,17.95
2019-04-07T09:05:57.561Z,17.90
2019-04-07T09:06:59.361Z,17.95
2019-04-07T09:07:57.372Z,17.99
2019-04-07T09:08:56.519Z,18.07
2019-04-07T09:09:56.715Z,18.15
2019-04-07T09:10:56.685Z,18.03
2019-04-07T09:11:57.525Z,18.18
2019-04-07T09:12:59.534Z,18.17
2019-04-07T09:13:58.195Z,18.18
2019-04-07T09:14:57.021Z,18.25
2019-04-07T09:15:56.763Z,18.15
2019-04-07T09:16:58.134Z,18.12
2019-04-07T09:17:56.685Z,18.30
2019-04-07T09:19:01.831Z,18.17
2019-04-07T09:19:58.209Z,18.15
2019-04-07T09:20:57.187Z,18.21
2019-04-07T09:21:57.016Z,18.30
2019-04-07T09:22:57.920Z,18.37
2019-04-07T09:23:57.544Z,18.39
2019-04-07T09:24:56.712Z,18.42
2019-04-07T09:25:56.326Z,18.39
2019-04-07T09:26:56.326Z,18.50
2019-04-07T09:27:57.210Z,18.48
2019-04-07T09:28:56.300Z,18.54
2019-04-07T09:29:58.263Z,18.52
2019-04-07T09:30:56.389Z,18.60
2019-04-07T09:31:56.513Z,18.51
2019-04-07T09:32:56.801Z,18.55
2019-04-07T09:33:56.261Z,18.69
2019-04-07T09:34:57.064Z,18.63
2019-04-07T09:35:58.888Z,18.66
2019-04-07T09:36:56.197Z,18.73
2019-04-07T09:37:56.241Z,18.70
2019-04-07T09:38:59.940Z,18.72
2019-04-07T09:40:01.026Z,18.69
2019-04-07T09:40:57.256Z,18.70
2019-04-07T09:41:56.134Z,18.75
2019-04-07T09:42:58.718Z,18.80
2019-04-07T09:43:56.133Z,18.72
2019-04-07T09:44:56.343Z,18.76
2019-04-07T09:45:56.102Z,18.80
2019-04-07T09:46:56.082Z,18.88
2019-04-07T09:47:56.453Z,18.84
2019-04-07T09:48:56.060Z,18.70
2019-04-07T09:49:57.346Z,18.63
2019-04-07T09:51:01.128Z,18.72
2019-04-07T09:51:57.476Z,18.76
2019-04-07T09:52:56.072Z,18.73
2019-04-07T09:53:56.658Z,18.69
2019-04-07T09:54:56.001Z,18.70
2019-04-07T09:55:57.967Z,18.80
2019-04-07T09:56:56.217Z,18.84
2019-04-07T09:57:56.055Z,18.87
2019-04-07T09:58:56.762Z,18.84
2019-04-07T09:59:56.475Z,19.02
2019-04-07T10:00:57.692Z,19.33
2019-04-07T10:01:59.420Z,19.58
2019-04-07T10:02:55.915Z,19.91
2019-04-07T10:03:55.911Z,20.21
2019-04-07T10:04:55.881Z,20.54
2019-04-07T10:05:55.869Z,20.72
2019-04-07T10:06:55.855Z,21.10
2019-04-07T10:07:55.848Z,21.37
2019-04-07T10:08:55.949Z,21.67
2019-04-07T10:10:07.675Z,22.06
2019-04-07T10:10:57.252Z,22.33
2019-04-07T10:11:56.622Z,22.61
2019-04-07T10:12:56.513Z,22.91
2019-04-07T10:13:56.537Z,23.31
2019-04-07T10:14:56.333Z,23.60
2019-04-07T10:15:56.363Z,23.90
2019-04-07T10:16:56.329Z,24.13
2019-04-07T10:17:56.479Z,24.18
2019-04-07T10:18:56.473Z,24.32
2019-04-07T10:19:55.735Z,24.58
2019-04-07T10:20:55.923Z,24.69
2019-04-07T10:21:56.112Z,24.87
2019-04-07T10:22:55.673Z,25.06
2019-04-07T10:23:56.318Z,25.27
2019-04-07T10:24:55.985Z,25.33
2019-04-07T10:25:56.131Z,25.55
2019-04-07T10:26:56.272Z,25.65
2019-04-07T10:27:55.932Z,25.77
2019-04-07T10:28:55.710Z,25.98
2019-04-07T10:29:55.687Z,26.21
2019-04-07T10:30:56.617Z,26.50
2019-04-07T10:31:56.569Z,26.81
2019-04-07T10:32:56.136Z,27.12
2019-04-07T10:33:56.253Z,27.28
2019-04-07T10:34:55.568Z,27.54
2019-04-07T10:35:55.577Z,27.85
2019-04-07T10:36:55.762Z,28.07
2019-04-07T10:37:55.515Z,28.31
2019-04-07T10:38:55.508Z,28.54
2019-04-07T10:39:57.919Z,28.51
2019-04-07T10:40:55.591Z,28.77
2019-04-07T10:41:55.489Z,29.00
2019-04-07T10:42:57.248Z,29.26
2019-04-07T10:43:55.818Z,29.43
2019-04-07T10:44:55.434Z,29.73
2019-04-07T10:45:56.005Z,29.89
2019-04-07T10:46:56.036Z,30.20
2019-04-07T10:47:55.419Z,30.20
2019-04-07T10:48:55.792Z,30.23
2019-04-07T10:50:01.932Z,30.46
2019-04-07T10:50:56.396Z,30.76
2019-04-07T10:51:55.370Z,30.61
2019-04-07T10:52:56.176Z,30.49
2019-04-07T10:53:56.140Z,30.51
2019-04-07T10:54:55.347Z,30.49
2019-04-07T10:55:55.361Z,30.11
2019-04-07T10:56:55.362Z,30.15
2019-04-07T10:57:55.319Z,30.47
2019-04-07T10:58:56.622Z,30.77
2019-04-07T10:59:55.707Z,30.89
2019-04-07T11:00:55.307Z,31.23
2019-04-07T11:01:55.261Z,31.66
2019-04-07T11:02:56.925Z,32.07
2019-04-07T11:03:56.399Z,32.35
2019-04-07T11:04:55.291Z,32.43
2019-04-07T11:05:55.259Z,32.65
2019-04-07T11:06:55.224Z,32.43
2019-04-07T11:07:55.875Z,32.03
2019-04-07T11:08:55.468Z,32.03
2019-04-07T11:09:55.191Z,32.19
2019-04-07T11:10:55.532Z,32.48
2019-04-07T11:11:55.189Z,32.72
2019-04-07T11:12:55.996Z,33.11
2019-04-07T11:13:55.471Z,33.45
2019-04-07T11:14:55.874Z,33.50
2019-04-07T11:15:55.264Z,33.59
2019-04-07T11:16:55.121Z,33.21
2019-04-07T11:17:55.883Z,33.06
2019-04-07T11:18:55.105Z,33.18
2019-04-07T11:19:55.098Z,33.41
2019-04-07T11:20:55.766Z,33.41
2019-04-07T11:21:55.593Z,33.51
2019-04-07T11:22:55.073Z,33.81
2019-04-07T11:23:55.061Z,34.28
2019-04-07T11:24:55.773Z,34.59
2019-04-07T11:25:55.065Z,34.85
2019-04-07T11:26:55.076Z,35.15
2019-04-07T11:27:55.078Z,35.23
2019-04-07T11:28:55.596Z,35.56
2019-04-07T11:29:55.033Z,35.62
2019-04-07T11:30:54.997Z,35.68
2019-04-07T11:31:55.008Z,35.77
2019-04-07T11:32:54.989Z,35.81
2019-04-07T11:33:55.510Z,36.03
2019-04-07T11:34:54.979Z,36.27
2019-04-07T11:35:54.951Z,36.20
2019-04-07T11:36:54.953Z,35.94
2019-04-07T11:37:54.941Z,35.34
2019-04-07T11:38:54.922Z,35.43
2019-04-07T11:39:54.919Z,35.21
2019-04-07T11:40:54.946Z,35.41
2019-04-07T11:41:55.713Z,35.81
2019-04-07T11:42:55.590Z,35.94
2019-04-07T11:43:54.876Z,36.28
2019-04-07T11:44:54.871Z,36.56
2019-04-07T11:46:00.065Z,36.51
2019-04-07T11:46:56.273Z,36.47
2019-04-07T11:47:54.847Z,36.28
2019-04-07T11:48:54.918Z,36.15
2019-04-07T11:49:55.213Z,36.16
2019-04-07T11:50:54.822Z,36.15
2019-04-07T11:51:55.547Z,35.97
2019-04-07T11:52:55.127Z,36.05
2019-04-07T11:53:54.812Z,36.43
2019-04-07T11:54:55.392Z,36.60
2019-04-07T11:55:54.804Z,36.29
2019-04-07T11:56:55.478Z,36.16
2019-04-07T11:58:07.396Z,36.01
2019-04-07T11:58:55.740Z,35.78
2019-04-07T11:59:55.603Z,35.78
2019-04-07T12:00:54.742Z,36.01
2019-04-07T12:01:55.308Z,36.13
2019-04-07T12:02:55.580Z,35.94
2019-04-07T12:03:55.735Z,35.94
2019-04-07T12:04:55.360Z,36.03
2019-04-07T12:05:55.149Z,36.17
2019-04-07T12:06:54.739Z,36.28
2019-04-07T12:07:58.137Z,36.50
2019-04-07T12:08:54.680Z,36.53
2019-04-07T12:09:55.242Z,36.65
2019-04-07T12:11:01.029Z,36.73
2019-04-07T12:11:55.662Z,36.28
2019-04-07T12:12:54.900Z,36.41
2019-04-07T12:13:54.610Z,36.25
2019-04-07T12:14:54.721Z,36.29
2019-04-07T12:15:56.024Z,36.41
2019-04-07T12:16:57.970Z,36.34
2019-04-07T12:17:54.582Z,36.28
2019-04-07T12:18:55.481Z,36.29
2019-04-07T12:19:56.790Z,36.47
2019-04-07T12:20:54.577Z,36.50
2019-04-07T12:21:54.718Z,36.51
2019-04-07T12:22:54.956Z,36.62
2019-04-07T12:23:55.365Z,36.50
2019-04-07T12:24:58.089Z,36.37
2019-04-07T12:25:55.778Z,36.54
2019-04-07T12:26:54.921Z,36.64
2019-04-07T12:27:54.870Z,36.60
2019-04-07T12:28:54.648Z,36.19
2019-04-07T12:29:54.478Z,35.80
2019-04-07T12:30:54.567Z,35.77
2019-04-07T12:31:54.620Z,35.62
2019-04-07T12:32:55.186Z,35.52
2019-04-07T12:33:54.897Z,35.55
2019-04-07T12:34:54.711Z,35.59
2019-04-07T12:35:56.071Z,35.36
2019-04-07T12:36:54.428Z,34.88
2019-04-07T12:37:57.164Z,34.81
2019-04-07T12:38:55.235Z,35.04
2019-04-07T12:39:54.411Z,35.16
2019-04-07T12:41:09.959Z,34.96
2019-04-07T12:41:57.228Z,35.10
2019-04-07T12:42:54.606Z,35.45
2019-04-07T12:43:55.109Z,35.50
2019-04-07T12:44:55.460Z,35.92
2019-04-07T12:45:54.818Z,36.15
2019-04-07T12:46:55.616Z,36.53
2019-04-07T12:47:54.349Z,36.93
2019-04-07T12:48:54.392Z,37.13
2019-04-07T12:49:55.117Z,37.12
2019-04-07T12:50:55.142Z,37.39
2019-04-07T12:51:55.967Z,37.57
2019-04-07T12:52:54.375Z,37.62
2019-04-07T12:53:54.761Z,37.57
2019-04-07T12:54:54.706Z,37.60
2019-04-07T12:55:57.941Z,37.69
2019-04-07T12:56:57.611Z,37.51